Time;durP1;ratioP1;P1;durP2;ratioP2;P2;SDS_P1;SDS_P2;PMS_P1;PMS_P2;Temp;Humidity;BMP_temperature;BMP_pressure;BME280_temperature;BME280_humidity;BME280_pressure;Samples;Min_cycle;Max_cycle;Signal;HPM_P1;HPM_P2
2022/01/19 00:00:47;;;;;;;;;14.00;13.00;;;;;7.41;65.38;102781.38;5079602;27;45311;-49
2022/01/19 00:03:12;;;;;;;;;20.25;18.50;;;;;7.38;65.11;102778.06;5079570;28;45497;-47
2022/01/19 00:05:39;;;;;;;;;17.50;15.25;;;;;7.31;64.91;102768.69;5079809;27;45385;-53
2022/01/19 00:08:04;;;;;;;;;16.75;15.25;;;;;7.37;64.44;102781.63;5079763;27;45329;-42
2022/01/19 00:10:29;;;;;;;;;17.50;16.25;;;;;7.36;65.24;102785.22;5079316;28;45362;-45
2022/01/19 00:12:55;;;;;;;;;23.50;18.50;;;;;7.05;64.96;102731.13;5079497;28;45305;-45
2022/01/19 00:15:22;;;;;;;;;23.50;17.00;;;;;7.36;64.80;102778.13;5079491;28;45289;-64
2022/01/19 00:17:48;;;;;;;;;26.75;20.00;;;;;7.36;65.21;102770.19;5079757;27;45260;-42
2022/01/19 00:20:14;;;;;;;;;23.00;18.75;;;;;7.37;64.12;102750.69;5079142;28;45399;-43
2022/01/19 00:22:39;;;;;;;;;17.00;15.25;;;;;7.37;64.98;102741.91;5079052;28;45204;-42
2022/01/19 00:25:08;;;;;;;;;24.75;18.50;;;;;7.35;64.94;102725.25;5079559;28;45311;-43
2022/01/19 00:27:34;;;;;;;;;23.25;19.25;;;;;7.32;65.23;102720.97;5079601;28;45250;-47
2022/01/19 00:29:59;;;;;;;;;20.75;15.00;;;;;7.34;64.98;102715.59;5079161;27;45393;-43
2022/01/19 00:32:26;;;;;;;;;24.25;17.25;;;;;7.35;64.73;102712.88;5079088;28;45422;-43
2022/01/19 00:34:51;;;;;;;;;23.50;16.50;;;;;7.34;64.88;102702.38;5079184;28;45319;-43
2022/01/19 00:37:17;;;;;;;;;23.75;17.00;;;;;7.30;64.98;102690.22;5079540;28;45323;-43
2022/01/19 00:39:42;;;;;;;;;14.00;13.00;;;;;7.30;64.94;102696.38;5079008;28;46178;-41
2022/01/19 00:42:08;;;;;;;;;23.00;17.00;;;;;7.21;64.77;102692.41;5079042;28;45342;-49
2022/01/19 00:44:33;;;;;;;;;18.50;16.00;;;;;7.29;64.52;102721.13;5079221;28;45287;-48
2022/01/19 00:46:59;;;;;;;;;23.25;16.25;;;;;7.31;64.62;102727.19;5079126;27;45703;-59
2022/01/19 00:49:24;;;;;;;;;19.75;19.50;;;;;7.33;64.98;102725.34;5078953;28;45559;-41
2022/01/19 00:51:50;;;;;;;;;19.00;18.00;;;;;7.34;65.05;102713.81;5078898;28;45445;-54
2022/01/19 00:54:16;;;;;;;;;20.75;20.75;;;;;7.30;64.57;102716.69;5079008;28;45294;-62
2022/01/19 00:56:42;;;;;;;;;22.50;17.00;;;;;7.34;64.21;102736.78;5079171;28;45332;-41
2022/01/19 00:59:07;;;;;;;;;25.00;16.75;;;;;7.32;64.35;102734.19;5078619;28;47318;-41
2022/01/19 01:01:33;;;;;;;;;20.50;16.00;;;;;7.30;63.84;102719.34;5078730;27;45334;-43
2022/01/19 01:03:58;;;;;;;;;13.25;13.25;;;;;7.31;64.37;102711.31;5077742;28;45248;-43
2022/01/19 01:06:23;;;;;;;;;22.50;17.00;;;;;7.30;64.38;102720.19;5078904;27;45405;-44
2022/01/19 01:08:49;;;;;;;;;21.00;17.00;;;;;7.27;63.83;102708.91;5078686;27;46269;-47
2022/01/19 01:11:16;;;;;;;;;29.25;15.75;;;;;7.24;63.57;102712.53;5078555;27;45569;-59
2022/01/19 01:16:39;;;;;;;;;24.00;18.25;;;;;7.19;64.08;102694.25;5079057;27;45469;-41
2022/01/19 01:19:07;;;;;;;;;19.50;19.00;;;;;7.21;64.22;102679.16;5078306;28;46361;-50
2022/01/19 01:21:33;;;;;;;;;20.50;17.00;;;;;7.17;64.06;102669.66;5078477;27;45172;-64
2022/01/19 01:23:58;;;;;;;;;27.75;21.00;;;;;7.19;63.86;102683.66;5078780;28;45297;-42
2022/01/19 01:26:24;;;;;;;;;21.50;16.25;;;;;7.15;64.13;102665.38;5078763;28;45208;-69
2022/01/19 01:28:50;;;;;;;;;20.25;18.25;;;;;7.10;64.27;102670.91;5078159;28;46122;-60
2022/01/19 01:31:16;;;;;;;;;15.50;13.00;;;;;7.12;64.29;102681.41;5078293;28;45409;-68
2022/01/19 01:33:42;;;;;;;;;22.25;18.25;;;;;7.12;64.36;102686.69;5078158;28;45312;-67
2022/01/19 01:36:08;;;;;;;;;26.50;19.25;;;;;7.11;64.19;102690.28;5078771;28;45340;-69
2022/01/19 01:38:34;;;;;;;;;27.75;16.00;;;;;7.07;63.99;102694.84;5078113;28;45659;-69
2022/01/19 01:41:00;;;;;;;;;26.75;19.25;;;;;7.05;64.20;102702.03;5078116;28;45441;-63
2022/01/19 01:43:25;;;;;;;;;21.00;16.75;;;;;7.05;63.73;102702.03;5078349;27;45373;-59
2022/01/19 01:45:56;;;;;;;;;21.00;17.00;;;;;7.07;64.29;102694.84;5078558;28;45236;-64
2022/01/19 01:48:23;;;;;;;;;28.75;20.00;;;;;7.07;63.93;102684.28;5077997;27;45461;-62
2022/01/19 01:53:35;;;;;;;;;25.50;21.50;;;;;6.92;64.05;102664.75;5077813;28;45227;-54
2022/01/19 01:56:10;;;;;;;;;25.50;19.75;;;;;7.00;64.01;102682.88;5078307;28;45366;-63
2022/01/19 01:58:41;;;;;;;;;25.25;20.25;;;;;6.99;64.47;102674.09;5078120;27;46063;-45
2022/01/19 02:01:07;;;;;;;;;24.50;19.00;;;;;6.94;64.62;102662.00;5078024;27;45256;-67
2022/01/19 02:03:38;;;;;;;;;22.00;17.25;;;;;6.97;64.54;102667.16;5079214;28;45426;-63
2022/01/19 02:07:01;;;;;;;;;21.50;21.50;;;;;6.95;64.49;102659.31;5079782;28;45370;-67
2022/01/19 02:09:25;;;;;;;;;20.00;19.00;;;;;6.96;64.48;102661.00;5079716;27;45994;-61
2022/01/19 02:23:16;;;;;;;;;26.75;22.00;;;;;6.89;64.69;102621.69;5077444;28;45343;-50
2022/01/19 02:25:44;;;;;;;;;35.00;27.00;;;;;6.91;64.21;102617.16;5077706;28;45365;-64
2022/01/19 02:41:34;;;;;;;;;23.25;20.00;;;;;6.93;64.45;102588.88;5077234;28;45789;-69
2022/01/19 02:43:59;;;;;;;;;23.00;18.25;;;;;6.91;64.42;102581.03;5077099;28;45382;-49
2022/01/19 02:49:15;;;;;;;;;25.00;21.00;;;;;6.83;64.57;102553.25;5077564;27;45283;-61
2022/01/19 02:51:42;;;;;;;;;28.25;21.50;;;;;6.83;64.97;102558.53;5076935;28;46412;-43
2022/01/19 02:54:12;;;;;;;;;25.75;22.75;;;;;6.79;65.00;102556.97;5075743;28;45469;-50
2022/01/19 02:56:39;;;;;;;;;30.00;23.25;;;;;6.83;65.00;102555.88;5077420;27;45876;-54
2022/01/19 02:59:15;;;;;;;;;23.75;21.25;;;;;6.78;64.91;102547.31;5077323;27;45561;-58
2022/01/19 03:09:44;;;;;;;;;26.50;23.50;;;;;6.83;64.57;102554.09;5077176;27;45375;-63
2022/01/19 03:12:10;;;;;;;;;20.75;19.25;;;;;6.85;64.70;102546.06;5076762;28;47124;-48
2022/01/19 03:14:37;;;;;;;;;31.00;23.25;;;;;6.91;64.48;102551.03;5075278;28;45485;-60
2022/01/19 03:17:03;;;;;;;;;22.25;20.00;;;;;6.95;64.49;102552.59;5076943;28;45402;-46
2022/01/19 03:19:30;;;;;;;;;27.00;24.00;;;;;6.96;64.39;102546.38;5077180;28;45538;-66
2022/01/19 03:21:56;;;;;;;;;19.50;16.25;;;;;6.86;64.04;102531.91;5076562;28;46210;-68
2022/01/19 03:24:21;;;;;;;;;30.50;26.75;;;;;6.94;64.33;102543.78;5076986;28;45328;-61
2022/01/19 03:26:47;;;;;;;;;34.25;26.00;;;;;6.95;63.99;102548.19;5077609;28;45407;-55
2022/01/19 03:29:12;;;;;;;;;34.00;27.75;;;;;6.88;64.35;102528.25;5081090;28;45157;-47
2022/01/19 03:31:38;;;;;;;;;33.50;27.00;;;;;6.95;63.95;102527.00;5080316;28;46052;-50
2022/01/19 03:34:05;;;;;;;;;32.00;25.50;;;;;6.82;63.75;102517.13;5079824;28;45318;-59
2022/01/19 03:36:31;;;;;;;;;31.00;24.25;;;;;6.89;64.39;102535.25;5080254;27;45254;-47
2022/01/19 03:38:56;;;;;;;;;35.75;25.25;;;;;6.85;64.77;102536.34;5079883;28;45375;-53
2022/01/19 03:41:22;;;;;;;;;34.25;27.00;;;;;6.63;64.03;102501.34;5079974;28;45445;-43
2022/01/19 03:43:47;;;;;;;;;22.00;15.75;;;;;6.73;64.70;102521.94;5080189;28;45351;-55
2022/01/19 03:46:14;;;;;;;;;26.75;23.00;;;;;6.78;64.90;102529.63;5080140;28;45681;-46
2022/01/19 03:49:09;;;;;;;;;20.50;20.00;;;;;6.77;64.80;102527.94;5080089;28;45449;-46
2022/01/19 03:51:30;;;;;;;;;27.50;21.50;;;;;6.81;64.40;102526.00;5079592;27;45373;-48
2022/01/19 03:53:56;;;;;;;;;29.50;25.75;;;;;6.80;64.82;102519.00;5079589;28;45309;-43
2022/01/19 03:56:21;;;;;;;;;26.75;22.50;;;;;6.73;64.60;102513.16;5079878;28;45412;-44
2022/01/19 03:58:46;;;;;;;;;29.75;25.25;;;;;6.81;64.63;102518.06;5080215;27;45397;-57
2022/01/19 04:01:12;;;;;;;;;27.75;22.25;;;;;6.78;65.20;102518.22;5079542;28;46110;-55
2022/01/19 04:06:23;;;;;;;;;30.50;24.00;;;;;6.68;65.23;102496.69;5079765;27;45358;-48
2022/01/19 04:08:49;;;;;;;;;29.50;25.50;;;;;6.81;64.63;102510.13;5079644;27;45224;-60
2022/01/19 04:11:17;;;;;;;;;27.50;22.00;;;;;6.73;64.72;102497.28;5079375;28;46266;-48
2022/01/19 04:16:27;;;;;;;;;24.75;22.50;;;;;6.80;64.86;102501.34;5079529;28;45283;-54
2022/01/19 04:19:02;;;;;;;;;28.50;24.25;;;;;6.81;65.19;102499.53;5079445;28;45361;-58
2022/01/19 04:21:27;;;;;;;;;31.75;26.00;;;;;6.75;64.77;102504.22;5079445;28;46181;-57
2022/01/19 04:23:53;;;;;;;;;29.00;25.25;;;;;6.74;64.96;102507.81;5079382;28;45668;-45
2022/01/19 04:26:18;;;;;;;;;33.50;27.00;;;;;6.73;64.91;102506.06;5079390;28;45424;-56
2022/01/19 04:28:43;;;;;;;;;42.50;32.00;;;;;6.73;65.01;102490.19;5079850;27;45392;-58
2022/01/19 04:31:09;;;;;;;;;32.25;26.25;;;;;6.72;64.75;102499.09;5078961;28;45287;-55
2022/01/19 04:33:39;;;;;;;;;37.50;27.25;;;;;6.74;64.67;102501.63;5078899;27;45368;-57
2022/01/19 04:36:21;;;;;;;;;34.75;28.25;;;;;6.71;65.25;102496.53;5079506;28;45312;-54
2022/01/19 04:44:29;;;;;;;;;26.25;19.25;;;;;6.69;64.72;102501.03;5078944;28;46106;-56
2022/01/19 05:03:37;;;;;;;;;28.75;22.75;;;;;7.02;64.36;102494.94;5078604;28;45410;-54
2022/01/19 05:06:09;;;;;;;;;32.50;22.75;;;;;7.05;64.97;102494.78;5078751;27;45416;-57
2022/01/19 05:14:03;;;;;;;;;27.50;23.50;;;;;7.11;64.33;102489.13;5078274;28;45689;-49
2022/01/19 05:16:28;;;;;;;;;36.00;25.50;;;;;7.11;64.16;102489.13;5077225;28;45382;-43
2022/01/19 05:18:54;;;;;;;;;34.50;27.75;;;;;7.15;64.39;102493.34;5078448;28;45280;-47
2022/01/19 05:21:19;;;;;;;;;29.75;24.25;;;;;7.14;64.44;102489.00;5078928;28;45339;-42
2022/01/19 05:23:45;;;;;;;;;33.50;26.75;;;;;7.16;64.35;102487.97;5078457;28;45491;-56
2022/01/19 05:26:11;;;;;;;;;32.75;28.50;;;;;7.16;64.75;102480.03;5078267;28;45267;-44
2022/01/19 05:28:36;;;;;;;;;33.25;28.25;;;;;7.18;64.26;102480.81;5078490;28;45247;-59
2022/01/19 05:31:02;;;;;;;;;31.75;28.00;;;;;7.23;64.47;102473.47;5078589;27;45318;-44
2022/01/19 05:33:28;;;;;;;;;28.50;26.25;;;;;7.24;64.42;102480.44;5077918;28;46359;-53
2022/01/19 05:35:53;;;;;;;;;26.00;21.50;;;;;7.27;64.41;102478.59;5078186;28;45400;-52
2022/01/19 05:38:19;;;;;;;;;28.75;26.75;;;;;7.25;64.34;102481.34;5078173;28;46032;-58
2022/01/19 05:40:44;;;;;;;;;32.00;27.00;;;;;7.30;64.91;102491.69;5078653;28;45279;-42
2022/01/19 05:43:10;;;;;;;;;34.75;28.25;;;;;7.30;63.90;102484.59;5078005;28;46089;-44
2022/01/19 05:45:35;;;;;;;;;32.75;26.00;;;;;7.30;64.39;102479.28;5078093;28;45350;-44
2022/01/19 05:48:01;;;;;;;;;29.25;24.25;;;;;7.32;64.85;102477.41;5078274;28;45359;-44
2022/01/19 05:50:27;;;;;;;;;32.00;27.50;;;;;7.29;64.76;102471.41;5077359;28;45422;-56
2022/01/19 05:52:52;;;;;;;;;35.00;26.75;;;;;7.36;64.20;102478.09;5077911;28;45914;-45
2022/01/19 05:55:18;;;;;;;;;31.75;26.00;;;;;7.36;64.25;102483.38;5077748;28;45292;-52
2022/01/19 05:57:44;;;;;;;;;33.50;29.00;;;;;7.38;64.21;102478.88;5078005;27;45220;-42
2022/01/19 06:00:10;;;;;;;;;33.25;25.25;;;;;7.40;64.38;102487.59;5078089;27;45599;-62
2022/01/19 06:02:36;;;;;;;;;40.00;24.75;;;;;7.42;64.37;102480.44;5077774;28;46026;-42
2022/01/19 06:05:04;;;;;;;;;30.00;27.50;;;;;7.42;64.28;102477.78;5077724;27;45775;-49
2022/01/19 06:07:31;;;;;;;;;41.25;26.50;;;;;7.41;63.74;102481.34;5077706;28;45338;-45
2022/01/19 06:10:08;;;;;;;;;35.25;25.75;;;;;7.36;63.73;102464.84;5077841;28;45487;-41
2022/01/19 06:12:34;;;;;;;;;34.50;31.25;;;;;7.43;64.48;102477.69;5077272;28;45327;-43
2022/01/19 06:15:00;;;;;;;;;33.50;24.00;;;;;7.46;64.07;102476.66;5077510;28;45373;-53
2022/01/19 06:17:26;;;;;;;;;29.75;27.50;;;;;7.46;64.38;102471.38;5077719;28;45164;-54
2022/01/19 06:19:52;;;;;;;;;24.00;23.00;;;;;7.49;64.86;102473.84;5077558;28;45266;-47
2022/01/19 06:22:18;;;;;;;;;29.25;24.50;;;;;7.49;64.17;102479.97;5077361;28;45928;-44
2022/01/19 06:24:44;;;;;;;;;32.75;27.75;;;;;7.40;64.91;102464.59;5077515;28;45374;-43
2022/01/19 06:27:10;;;;;;;;;32.25;24.00;;;;;7.52;64.62;102483.41;5077578;28;45417;-41
2022/01/19 06:29:36;;;;;;;;;41.25;28.50;;;;;7.42;64.79;102456.59;5077556;28;45425;-41
2022/01/19 06:32:01;;;;;;;;;29.75;25.75;;;;;7.52;64.54;102468.38;5077269;28;46094;-50
2022/01/19 06:34:27;;;;;;;;;34.00;27.25;;;;;7.52;64.37;102473.66;5077187;28;45427;-48
2022/01/19 06:36:53;;;;;;;;;35.00;28.25;;;;;7.52;63.92;102470.16;5076015;28;45417;-65
2022/01/19 06:39:19;;;;;;;;;35.75;27.25;;;;;7.51;64.84;102461.38;5077347;27;45400;-67
2022/01/19 06:41:45;;;;;;;;;31.00;26.50;;;;;7.51;64.89;102464.03;5077146;28;45980;-60
2022/01/19 06:44:12;;;;;;;;;29.50;26.75;;;;;7.52;64.39;102468.38;5077346;28;45334;-42
2022/01/19 06:46:37;;;;;;;;;33.75;30.25;;;;;7.52;64.30;102464.88;5077323;28;45325;-47
2022/01/19 06:49:03;;;;;;;;;31.50;27.50;;;;;7.52;64.80;102463.06;5077484;28;45413;-53
2022/01/19 06:51:28;;;;;;;;;28.75;20.00;;;;;7.28;64.53;102422.06;5077340;28;45447;-53
2022/01/19 06:53:54;;;;;;;;;36.75;28.50;;;;;7.56;64.61;102467.25;5075669;28;45432;-49
2022/01/19 06:56:19;;;;;;;;;53.00;33.25;;;;;7.57;65.06;102470.75;5077437;28;45243;-63
2022/01/19 06:58:45;;;;;;;;;40.50;32.50;;;;;7.57;64.48;102465.47;5078474;28;45263;-64
2022/01/19 07:01:10;;;;;;;;;36.75;29.00;;;;;7.57;64.94;102457.53;5078283;27;46310;-50
2022/01/19 07:03:35;;;;;;;;;37.00;29.75;;;;;7.59;65.55;102466.25;5081227;28;45441;-68
2022/01/19 07:06:01;;;;;;;;;41.50;31.00;;;;;7.60;65.41;102466.16;5081117;28;45719;-64
2022/01/19 07:08:27;;;;;;;;;38.25;32.00;;;;;7.59;65.64;102459.16;5081257;28;45293;-59
2022/01/19 07:10:53;;;;;;;;;41.75;33.50;;;;;7.60;65.18;102471.44;5080878;28;46235;-69
2022/01/19 07:13:19;;;;;;;;;48.25;36.00;;;;;7.59;65.41;102468.91;5080350;27;45234;-65
2022/01/19 07:15:45;;;;;;;;;52.50;38.25;;;;;7.58;65.50;102461.88;5080627;27;45303;-69
2022/01/19 07:18:10;;;;;;;;;42.50;31.00;;;;;7.59;64.86;102464.47;5080724;28;45335;-63
2022/01/19 07:20:36;;;;;;;;;44.75;35.00;;;;;7.59;65.57;102468.91;5080069;28;46523;-63
2022/01/19 07:23:02;;;;;;;;;44.75;34.75;;;;;7.56;65.82;102467.25;5080187;28;45382;-69
2022/01/19 07:25:28;;;;;;;;;46.25;33.75;;;;;7.53;65.95;102467.44;5080538;27;45433;-65
2022/01/19 07:27:54;;;;;;;;;54.25;43.75;;;;;7.53;65.41;102471.88;5080293;27;45423;-69
2022/01/19 07:30:20;;;;;;;;;42.50;36.00;;;;;7.52;66.75;102467.53;5079945;28;45373;-70
2022/01/19 07:32:48;;;;;;;;;44.75;39.50;;;;;7.46;66.31;102466.94;5080237;27;45352;-66
2022/01/19 07:35:14;;;;;;;;;53.75;39.50;;;;;7.48;65.84;102475.63;5080376;27;45284;-69
2022/01/19 07:37:40;;;;;;;;;40.50;33.75;;;;;7.46;66.46;102474.88;5080348;27;45375;-66
2022/01/19 07:40:06;;;;;;;;;49.75;40.00;;;;;7.35;66.49;102455.22;5079772;28;46253;-52
2022/01/19 07:42:32;;;;;;;;;48.25;38.25;;;;;7.47;67.01;102475.72;5079835;28;45276;-68
2022/01/19 07:44:58;;;;;;;;;43.25;37.25;;;;;7.47;66.60;102481.03;5078973;28;45229;-65
2022/01/19 07:47:24;;;;;;;;;44.50;38.25;;;;;7.46;67.47;102477.53;5080213;27;45243;-68
2022/01/19 07:49:49;;;;;;;;;39.25;33.75;;;;;7.47;67.16;102479.22;5079742;27;46253;-67
2022/01/19 07:52:15;;;;;;;;;41.75;38.00;;;;;7.47;66.96;102475.72;5079899;28;45440;-54
2022/01/19 07:54:40;;;;;;;;;46.75;37.00;;;;;7.46;67.32;102474.03;5079738;28;45387;-54
2022/01/19 07:57:06;;;;;;;;;47.75;40.00;;;;;7.51;66.60;102482.56;5080228;28;45342;-48
2022/01/19 07:59:31;;;;;;;;;52.50;39.00;;;;;7.50;67.53;102481.72;5080000;28;45305;-62
2022/01/19 08:01:58;;;;;;;;;56.25;37.75;;;;;7.49;67.21;102473.84;5079883;28;45318;-61
2022/01/19 08:04:23;;;;;;;;;48.25;36.00;;;;;7.56;67.62;102492.91;5079992;28;45341;-53
2022/01/19 08:06:54;;;;;;;;;52.25;37.25;;;;;7.58;67.51;102486.56;5079698;28;45452;-56
2022/01/19 08:09:25;;;;;;;;;48.25;40.00;;;;;7.55;67.22;102475.31;5078214;28;48038;-57
2022/01/19 08:11:51;;;;;;;;;47.00;38.00;;;;;7.35;67.54;102442.81;5079653;27;45271;-48
2022/01/19 08:14:17;;;;;;;;;44.00;35.00;;;;;7.61;66.73;102483.75;5079051;27;45363;-61
2022/01/19 08:16:43;;;;;;;;;40.75;33.25;;;;;7.56;67.06;102471.72;5079752;28;45303;-47
2022/01/19 08:19:08;;;;;;;;;42.25;32.25;;;;;7.59;66.82;102480.34;5079688;27;46157;-44
2022/01/19 08:21:34;;;;;;;;;44.50;37.00;;;;;7.60;67.11;102486.50;5079294;28;46144;-59
2022/01/19 08:23:59;;;;;;;;;37.00;32.00;;;;;7.59;66.82;102477.69;5079506;28;45420;-66
2022/01/19 08:26:25;;;;;;;;;41.00;32.25;;;;;7.59;67.35;102482.16;5079667;28;45419;-67
2022/01/19 08:28:50;;;;;;;;;38.75;30.25;;;;;7.56;66.76;102485.81;5079217;28;47072;-53
2022/01/19 08:31:16;;;;;;;;;42.00;33.00;;;;;7.57;67.39;102497.25;5079280;28;45300;-46
2022/01/19 08:33:41;;;;;;;;;39.00;30.25;;;;;7.58;67.60;102494.50;5079427;28;45338;-42
2022/01/19 08:36:06;;;;;;;;;42.25;32.00;;;;;7.59;66.78;102501.53;5079553;28;45386;-48
2022/01/19 08:38:33;;;;;;;;;48.25;37.25;;;;;7.62;66.55;102500.50;5078842;27;47136;-66
2022/01/19 08:40:58;;;;;;;;;31.50;27.50;;;;;7.62;67.81;102500.50;5077355;28;45318;-63
2022/01/19 08:43:23;;;;;;;;;38.75;30.25;;;;;7.63;67.71;102499.56;5078182;28;45392;-68
2022/01/19 08:45:50;;;;;;;;;44.50;31.50;;;;;7.64;67.37;102509.22;5079298;28;45389;-41
2022/01/19 08:48:18;;;;;;;;;40.25;28.25;;;;;7.64;67.37;102503.94;5079303;27;45453;-66
2022/01/19 08:50:43;;;;;;;;;45.50;35.50;;;;;7.65;67.26;102508.28;5078380;28;45408;-46
2022/01/19 08:53:09;;;;;;;;;30.50;26.25;;;;;7.64;67.60;102514.53;5077417;28;45631;-55
2022/01/19 08:55:35;;;;;;;;;38.25;31.25;;;;;7.67;66.75;102515.22;5078863;27;45513;-60
2022/01/19 08:58:00;;;;;;;;;38.50;29.75;;;;;7.66;67.15;102518.78;5078792;27;47393;-42
2022/01/19 09:00:25;;;;;;;;;38.50;33.25;;;;;7.68;67.35;102524.88;5079017;27;45309;-47
2022/01/19 09:02:51;;;;;;;;;41.75;32.00;;;;;7.57;67.33;102499.91;5078607;27;45426;-44
2022/01/19 09:05:16;;;;;;;;;31.75;28.25;;;;;7.70;67.16;102525.63;5079375;27;45241;-64
2022/01/19 09:07:42;;;;;;;;;40.00;30.25;;;;;7.72;67.39;102533.50;5078062;27;45893;-53
2022/01/19 09:10:10;;;;;;;;;30.25;24.75;;;;;7.73;67.71;102530.75;5078098;27;45446;-45
2022/01/19 09:12:36;;;;;;;;;33.75;28.00;;;;;7.77;67.49;102527.94;5079390;27;45422;-44
2022/01/19 09:15:06;;;;;;;;;36.00;30.50;;;;;7.80;67.23;102530.44;5084255;27;45593;-53
2022/01/19 09:17:32;;;;;;;;;43.75;33.25;;;;;7.83;67.59;102535.53;5082769;27;45438;-52
2022/01/19 09:19:59;;;;;;;;;40.00;32.75;;;;;7.80;66.75;102525.13;5082100;27;45419;-58
2022/01/19 09:22:24;;;;;;;;;41.25;34.00;;;;;7.86;66.38;102533.56;5080618;27;45232;-67
2022/01/19 09:24:50;;;;;;;;;34.75;31.50;;;;;7.88;67.33;102534.38;5078924;27;45367;-59
2022/01/19 09:27:18;;;;;;;;;39.50;32.75;;;;;7.91;66.48;102528.88;5079714;27;45436;-64
2022/01/19 09:29:45;;;;;;;;;32.00;30.50;;;;;7.87;66.05;102521.19;5079660;27;45496;-69
2022/01/19 09:32:14;;;;;;;;;35.00;29.00;;;;;7.93;66.12;102527.00;5079373;27;45390;-64
2022/01/19 09:34:43;;;;;;;;;36.75;27.75;;;;;7.88;66.25;102515.81;5080163;27;45375;-51
2022/01/19 09:37:09;;;;;;;;;35.75;29.75;;;;;7.81;66.11;102513.59;5109726;27;46284;-60
2022/01/19 09:39:35;;;;;;;;;38.25;29.25;;;;;7.90;66.03;102526.31;5077907;27;45507;-59
2022/01/19 09:42:00;;;;;;;;;43.25;34.50;;;;;7.98;66.53;102535.56;5085801;27;45623;-63
2022/01/19 09:44:28;;;;;;;;;37.50;30.00;;;;;8.00;66.02;102538.94;5086697;27;45409;-66
2022/01/19 09:46:54;;;;;;;;;40.00;33.50;;;;;8.02;65.91;102536.22;5094357;27;45562;-70
2022/01/19 09:49:20;;;;;;;;;37.75;27.50;;;;;8.03;66.55;102537.09;5094039;27;45474;-65
2022/01/19 09:51:48;;;;;;;;;35.00;29.75;;;;;7.96;66.29;102523.31;5093305;27;45224;-63
2022/01/19 09:54:17;;;;;;;;;36.25;23.75;;;;;8.03;65.68;102534.44;5088052;27;45491;-71
2022/01/19 09:56:43;;;;;;;;;29.75;27.50;;;;;8.00;66.71;102525.69;5091943;27;45459;-75
2022/01/19 09:59:12;;;;;;;;;36.50;27.75;;;;;8.02;65.89;102520.34;5090690;27;45037;-73
2022/01/19 10:01:55;;;;;;;;;34.75;27.50;;;;;8.12;65.73;102531.25;5095023;27;45485;-74
2022/01/19 10:04:32;;;;;;;;;31.50;25.50;;;;;8.14;65.51;102534.69;5089574;27;45242;-68
2022/01/19 10:07:33;;;;;;;;;34.75;24.50;;;;;8.16;65.78;102525.69;5083699;27;45362;-73
2022/01/19 10:10:08;;;;;;;;;34.25;28.25;;;;;8.16;65.15;102528.34;5035589;28;45444;-72
2022/01/19 10:18:36;;;;;;;;;36.75;26.75;;;;;8.21;64.49;102536.03;5014698;28;45935;-55
2022/01/19 10:21:06;;;;;;;;;26.75;22.00;;;;;8.19;64.41;102533.47;5014443;28;45383;-49
2022/01/19 10:23:39;;;;;;;;;38.00;30.00;;;;;8.18;64.24;102537.09;5014764;28;45397;-44
2022/01/19 10:26:08;;;;;;;;;38.50;30.00;;;;;8.21;65.02;102538.69;5015014;28;45593;-46
2022/01/19 10:29:01;;;;;;;;;35.00;24.50;;;;;8.21;64.31;102531.59;5014481;28;45511;-42
2022/01/19 10:31:28;;;;;;;;;35.00;26.25;;;;;8.24;64.96;102533.22;5013957;28;45523;-56
2022/01/19 10:34:10;;;;;;;;;45.75;33.00;;;;;8.25;64.20;102526.97;5014609;28;45410;-47
2022/01/19 10:36:50;;;;;;;;;30.75;27.00;;;;;8.28;64.36;102539.19;5014485;28;45503;-44
2022/01/19 10:39:19;;;;;;;;;42.00;34.25;;;;;8.29;65.24;102528.50;5014069;28;45355;-58
2022/01/19 10:42:15;;;;;;;;;39.00;31.00;;;;;8.28;64.62;102532.09;5014183;28;45295;-58
2022/01/19 10:44:45;;;;;;;;;42.00;33.75;;;;;8.25;64.33;102525.16;5014575;28;45534;-58
2022/01/19 10:47:11;;;;;;;;;53.25;40.25;;;;;8.24;65.89;102520.81;5014784;28;45353;-57
2022/01/19 10:49:57;;;;;;;;;37.25;34.75;;;;;8.24;65.39;102518.16;5051839;28;46065;-58
2022/01/19 10:52:26;;;;;;;;;42.75;30.75;;;;;8.24;65.83;102519.97;5076898;28;45269;-58
2022/01/19 10:54:52;;;;;;;;;50.25;36.00;;;;;8.28;65.73;102518.00;5076792;28;45303;-53
2022/01/19 10:57:17;;;;;;;;;40.75;34.75;;;;;8.28;65.78;102513.53;5077103;28;45465;-54
2022/01/19 10:59:43;;;;;;;;;48.25;36.50;;;;;8.31;65.66;102513.38;5076978;28;45730;-45
2022/01/19 11:02:12;;;;;;;;;49.00;40.75;;;;;8.33;64.85;102507.97;5076601;28;45267;-59
2022/01/19 11:04:39;;;;;;;;;49.25;40.25;;;;;8.29;65.19;102507.28;5077067;27;45315;-51
2022/01/19 11:07:07;;;;;;;;;38.25;29.25;;;;;8.28;64.98;102504.72;5076955;27;45446;-45
2022/01/19 11:09:35;;;;;;;;;52.00;38.75;;;;;8.28;65.92;102510.03;5076165;27;46745;-45
2022/01/19 11:12:07;;;;;;;;;51.25;41.50;;;;;8.24;65.86;102509.34;5076748;28;45278;-59
2022/01/19 11:14:35;;;;;;;;;53.75;41.00;;;;;8.23;65.61;102505.00;5076567;27;45324;-43
2022/01/19 11:17:01;;;;;;;;;31.25;28.00;;;;;8.23;65.90;102505.84;5076996;27;45239;-53
2022/01/19 11:19:27;;;;;;;;;54.25;42.50;;;;;8.21;65.50;102501.56;5076408;28;46922;-44
2022/01/19 11:22:16;;;;;;;;;66.00;47.25;;;;;8.18;65.53;102496.47;5076452;28;45264;-49
2022/01/19 11:24:45;;;;;;;;;61.00;45.75;;;;;8.16;66.12;102495.69;5076504;28;45311;-51
2022/01/19 11:27:11;;;;;;;;;70.00;46.50;;;;;8.14;65.93;102490.47;5076596;28;45292;-49
2022/01/19 11:29:38;;;;;;;;;40.25;22.00;;;;;8.09;66.39;102483.72;5076285;28;45315;-54
2022/01/19 11:32:17;;;;;;;;;68.50;51.00;;;;;8.10;66.11;102491.59;5076318;27;45389;-52
2022/01/19 11:34:50;;;;;;;;;70.25;49.00;;;;;8.12;66.66;102480.91;5076371;28;45428;-55
2022/01/19 11:37:36;;;;;;;;;61.50;46.25;;;;;8.15;66.44;102480.72;5076465;28;45399;-56
2022/01/19 11:40:09;;;;;;;;;66.50;46.75;;;;;8.16;67.21;102483.28;5076035;28;45905;-52
2022/01/19 11:42:35;;;;;;;;;59.50;48.50;;;;;8.16;66.36;102485.94;5076080;27;45436;-55
2022/01/19 11:45:01;;;;;;;;;67.25;49.50;;;;;8.17;66.60;102473.53;5077000;28;45408;-57
2022/01/19 11:47:29;;;;;;;;;60.00;45.25;;;;;8.14;67.01;102469.28;5076627;28;45311;-55
2022/01/19 11:50:05;;;;;;;;;50.75;40.50;;;;;8.18;66.98;102473.47;5080316;27;46250;-55
2022/01/19 11:52:41;;;;;;;;;61.75;44.00;;;;;8.13;67.34;102470.22;5079526;28;45414;-55
2022/01/19 11:55:19;;;;;;;;;59.50;43.50;;;;;8.11;67.26;102460.63;5079573;28;45380;-50
2022/01/19 11:57:47;;;;;;;;;71.25;45.50;;;;;8.10;67.16;102443.03;5079842;28;45455;-58
2022/01/19 12:00:31;;;;;;;;;63.75;46.25;;;;;8.12;66.76;102449.09;5079179;28;46076;-53
2022/01/19 12:02:58;;;;;;;;;56.25;45.00;;;;;8.16;67.13;102459.41;5079215;28;45271;-57
2022/01/19 12:05:35;;;;;;;;;59.50;42.50;;;;;8.15;66.47;102457.72;5079555;28;45494;-47
2022/01/19 12:08:18;;;;;;;;;46.25;37.50;;;;;8.14;67.40;102456.03;5078327;28;45397;-53
2022/01/19 12:10:47;;;;;;;;;56.75;42.75;;;;;8.11;66.95;102455.34;5079105;28;46099;-57
2022/01/19 12:16:19;;;;;;;;;58.75;42.50;;;;;8.14;66.78;102442.78;5079075;27;45313;-55
2022/01/19 12:19:13;;;;;;;;;51.75;42.00;;;;;8.18;66.81;102451.41;5079311;27;45305;-53
2022/01/19 12:21:41;;;;;;;;;48.25;37.75;;;;;8.17;67.14;102444.38;5078741;27;45503;-47
2022/01/19 12:24:36;;;;;;;;;48.50;39.00;;;;;8.16;67.07;102432.91;5078794;27;45359;-55
2022/01/19 12:27:12;;;;;;;;;47.50;34.25;;;;;8.19;67.02;102437.19;5078883;27;45292;-56
2022/01/19 12:29:40;;;;;;;;;47.25;40.25;;;;;8.20;66.74;102446.84;5079338;28;45329;-57
2022/01/19 12:32:17;;;;;;;;;47.00;37.00;;;;;8.22;67.29;102437.88;5078747;28;46295;-54
2022/01/19 12:34:51;;;;;;;;;39.50;28.00;;;;;8.26;66.80;102427.94;5078234;27;45242;-53
2022/01/19 12:37:32;;;;;;;;;45.50;36.25;;;;;8.29;66.32;102432.19;5078807;27;45375;-57
2022/01/19 12:39:59;;;;;;;;;34.50;25.50;;;;;8.33;66.49;102420.47;5078739;27;45345;-55
2022/01/19 12:42:43;;;;;;;;;40.00;33.25;;;;;8.37;67.62;102435.28;5078395;28;46160;-57
2022/01/19 12:45:27;;;;;;;;;46.00;31.75;;;;;8.41;66.73;102432.34;5078679;28;45455;-56